sensor_id;sensor_type;location;lat;lon;timestamp;P1;durP1;ratioP1;P2;durP2;ratioP2
9108;SDS011;4590;51.462;6.692;2022-10-19T00:00:29;5.63;;;1.80;;
9108;SDS011;4590;51.462;6.692;2022-10-19T00:02:54;4.97;;;2.00;;
9108;SDS011;4590;51.462;6.692;2022-10-19T00:05:19;6.50;;;2.73;;
9108;SDS011;4590;51.462;6.692;2022-10-19T00:07:45;7.63;;;2.80;;
9108;SDS011;4590;51.462;6.692;2022-10-19T00:10:10;4.40;;;2.03;;
9108;SDS011;4590;51.462;6.692;2022-10-19T00:12:35;6.10;;;2.43;;
9108;SDS011;4590;51.462;6.692;2022-10-19T00:15:02;5.50;;;2.35;;
9108;SDS011;4590;51.462;6.692;2022-10-19T00:17:28;10.80;;;2.88;;
9108;SDS011;4590;51.462;6.692;2022-10-19T00:19:54;6.10;;;2.60;;
9108;SDS011;4590;51.462;6.692;2022-10-19T00:22:19;6.07;;;2.70;;
9108;SDS011;4590;51.462;6.692;2022-10-19T00:24:44;7.07;;;2.70;;
9108;SDS011;4590;51.462;6.692;2022-10-19T00:27:10;7.60;;;2.30;;
9108;SDS011;4590;51.462;6.692;2022-10-19T00:29:35;6.57;;;2.73;;
9108;SDS011;4590;51.462;6.692;2022-10-19T00:32:00;6.90;;;2.63;;
9108;SDS011;4590;51.462;6.692;2022-10-19T00:34:26;7.53;;;3.27;;
9108;SDS011;4590;51.462;6.692;2022-10-19T00:36:51;11.43;;;3.23;;
9108;SDS011;4590;51.462;6.692;2022-10-19T00:39:16;7.00;;;2.70;;
9108;SDS011;4590;51.462;6.692;2022-10-19T00:41:43;6.95;;;2.40;;
9108;SDS011;4590;51.462;6.692;2022-10-19T00:46:42;6.25;;;2.67;;
9108;SDS011;4590;51.462;6.692;2022-10-19T00:49:10;11.10;;;3.80;;
9108;SDS011;4590;51.462;6.692;2022-10-19T00:51:41;8.77;;;2.70;;
9108;SDS011;4590;51.462;6.692;2022-10-19T00:54:09;9.13;;;2.90;;
9108;SDS011;4590;51.462;6.692;2022-10-19T00:56:36;7.05;;;3.00;;
9108;SDS011;4590;51.462;6.692;2022-10-19T00:59:05;9.45;;;2.92;;
9108;SDS011;4590;51.462;6.692;2022-10-19T01:01:31;10.13;;;3.83;;
9108;SDS011;4590;51.462;6.692;2022-10-19T01:03:58;7.38;;;3.03;;
9108;SDS011;4590;51.462;6.692;2022-10-19T01:06:24;7.70;;;2.90;;
9108;SDS011;4590;51.462;6.692;2022-10-19T01:08:50;8.23;;;3.13;;
9108;SDS011;4590;51.462;6.692;2022-10-19T01:14:03;7.20;;;3.05;;
9108;SDS011;4590;51.462;6.692;2022-10-19T01:16:53;7.57;;;2.90;;
9108;SDS011;4590;51.462;6.692;2022-10-19T01:22:45;8.18;;;3.70;;
9108;SDS011;4590;51.462;6.692;2022-10-19T01:30:21;7.70;;;3.13;;
9108;SDS011;4590;51.462;6.692;2022-10-19T01:33:08;9.98;;;3.40;;
9108;SDS011;4590;51.462;6.692;2022-10-19T01:35:49;7.45;;;2.72;;
9108;SDS011;4590;51.462;6.692;2022-10-19T01:38:41;8.35;;;3.10;;
9108;SDS011;4590;51.462;6.692;2022-10-19T01:44:00;7.28;;;3.20;;
9108;SDS011;4590;51.462;6.692;2022-10-19T01:46:37;8.88;;;3.65;;
9108;SDS011;4590;51.462;6.692;2022-10-19T01:49:12;6.53;;;2.88;;
9108;SDS011;4590;51.462;6.692;2022-10-19T01:51:46;6.82;;;3.15;;
9108;SDS011;4590;51.462;6.692;2022-10-19T01:54:15;8.57;;;3.35;;
9108;SDS011;4590;51.462;6.692;2022-10-19T01:56:44;7.65;;;3.13;;
9108;SDS011;4590;51.462;6.692;2022-10-19T01:59:11;5.25;;;2.90;;
9108;SDS011;4590;51.462;6.692;2022-10-19T02:01:40;7.22;;;3.00;;
9108;SDS011;4590;51.462;6.692;2022-10-19T02:04:09;6.07;;;2.90;;
9108;SDS011;4590;51.462;6.692;2022-10-19T02:06:37;7.15;;;3.35;;
9108;SDS011;4590;51.462;6.692;2022-10-19T02:09:02;7.43;;;3.33;;
9108;SDS011;4590;51.462;6.692;2022-10-19T02:11:28;8.17;;;3.00;;
9108;SDS011;4590;51.462;6.692;2022-10-19T02:13:57;8.77;;;3.20;;
9108;SDS011;4590;51.462;6.692;2022-10-19T02:16:36;12.38;;;3.15;;
9108;SDS011;4590;51.462;6.692;2022-10-19T02:19:06;11.38;;;3.25;;
9108;SDS011;4590;51.462;6.692;2022-10-19T02:21:33;9.95;;;3.40;;
9108;SDS011;4590;51.462;6.692;2022-10-19T02:23:59;9.60;;;3.43;;
9108;SDS011;4590;51.462;6.692;2022-10-19T02:26:24;7.33;;;3.00;;
9108;SDS011;4590;51.462;6.692;2022-10-19T02:28:50;13.90;;;4.18;;
9108;SDS011;4590;51.462;6.692;2022-10-19T02:31:18;9.45;;;3.60;;
9108;SDS011;4590;51.462;6.692;2022-10-19T02:33:44;7.87;;;3.37;;
9108;SDS011;4590;51.462;6.692;2022-10-19T02:36:09;5.67;;;2.80;;
9108;SDS011;4590;51.462;6.692;2022-10-19T02:38:34;6.80;;;3.50;;
9108;SDS011;4590;51.462;6.692;2022-10-19T02:41:35;7.33;;;3.67;;
9108;SDS011;4590;51.462;6.692;2022-10-19T02:43:59;11.02;;;4.32;;
9108;SDS011;4590;51.462;6.692;2022-10-19T02:49:00;17.02;;;4.15;;
9108;SDS011;4590;51.462;6.692;2022-10-19T02:54:01;8.43;;;3.47;;
9108;SDS011;4590;51.462;6.692;2022-10-19T02:56:27;8.43;;;3.88;;
9108;SDS011;4590;51.462;6.692;2022-10-19T02:58:53;8.30;;;3.80;;
9108;SDS011;4590;51.462;6.692;2022-10-19T03:01:19;12.90;;;3.95;;
9108;SDS011;4590;51.462;6.692;2022-10-19T03:03:44;10.17;;;3.30;;
9108;SDS011;4590;51.462;6.692;2022-10-19T03:06:10;11.15;;;3.95;;
9108;SDS011;4590;51.462;6.692;2022-10-19T03:08:35;12.43;;;3.97;;
9108;SDS011;4590;51.462;6.692;2022-10-19T03:11:01;9.80;;;3.90;;
9108;SDS011;4590;51.462;6.692;2022-10-19T03:13:26;5.50;;;3.10;;
9108;SDS011;4590;51.462;6.692;2022-10-19T03:15:51;8.97;;;3.20;;
9108;SDS011;4590;51.462;6.692;2022-10-19T03:18:16;18.00;;;3.90;;
9108;SDS011;4590;51.462;6.692;2022-10-19T03:20:42;12.10;;;4.47;;
9108;SDS011;4590;51.462;6.692;2022-10-19T03:23:07;9.50;;;4.27;;
9108;SDS011;4590;51.462;6.692;2022-10-19T03:25:32;5.10;;;3.33;;
9108;SDS011;4590;51.462;6.692;2022-10-19T03:27:58;12.53;;;4.00;;
9108;SDS011;4590;51.462;6.692;2022-10-19T03:30:23;10.83;;;3.60;;
9108;SDS011;4590;51.462;6.692;2022-10-19T03:32:48;12.00;;;3.50;;
9108;SDS011;4590;51.462;6.692;2022-10-19T03:35:14;7.53;;;3.73;;
9108;SDS011;4590;51.462;6.692;2022-10-19T03:37:39;6.47;;;3.63;;
9108;SDS011;4590;51.462;6.692;2022-10-19T03:40:04;10.53;;;4.00;;
9108;SDS011;4590;51.462;6.692;2022-10-19T03:42:30;7.70;;;4.37;;
9108;SDS011;4590;51.462;6.692;2022-10-19T03:44:55;8.20;;;3.67;;
9108;SDS011;4590;51.462;6.692;2022-10-19T03:47:20;10.83;;;4.40;;
9108;SDS011;4590;51.462;6.692;2022-10-19T03:49:46;9.10;;;3.77;;
9108;SDS011;4590;51.462;6.692;2022-10-19T03:52:11;9.87;;;3.70;;
9108;SDS011;4590;51.462;6.692;2022-10-19T03:54:36;7.77;;;3.77;;
9108;SDS011;4590;51.462;6.692;2022-10-19T03:57:02;6.70;;;3.47;;
9108;SDS011;4590;51.462;6.692;2022-10-19T03:59:27;6.83;;;4.17;;
9108;SDS011;4590;51.462;6.692;2022-10-19T04:01:52;8.53;;;3.80;;
9108;SDS011;4590;51.462;6.692;2022-10-19T04:04:18;11.13;;;3.73;;
9108;SDS011;4590;51.462;6.692;2022-10-19T04:06:45;7.55;;;3.72;;
9108;SDS011;4590;51.462;6.692;2022-10-19T04:09:12;10.63;;;4.00;;
9108;SDS011;4590;51.462;6.692;2022-10-19T04:11:39;5.53;;;3.40;;
9108;SDS011;4590;51.462;6.692;2022-10-19T04:14:05;7.90;;;4.43;;
9108;SDS011;4590;51.462;6.692;2022-10-19T04:16:31;7.27;;;3.17;;
9108;SDS011;4590;51.462;6.692;2022-10-19T04:18:57;7.28;;;3.38;;
9108;SDS011;4590;51.462;6.692;2022-10-19T04:21:23;10.37;;;3.77;;
9108;SDS011;4590;51.462;6.692;2022-10-19T04:23:53;7.30;;;3.30;;
9108;SDS011;4590;51.462;6.692;2022-10-19T04:26:21;12.15;;;3.60;;
9108;SDS011;4590;51.462;6.692;2022-10-19T04:28:47;8.53;;;3.80;;
9108;SDS011;4590;51.462;6.692;2022-10-19T04:31:12;10.30;;;3.80;;
9108;SDS011;4590;51.462;6.692;2022-10-19T04:33:37;7.37;;;3.47;;
9108;SDS011;4590;51.462;6.692;2022-10-19T04:36:04;5.68;;;3.30;;
9108;SDS011;4590;51.462;6.692;2022-10-19T04:38:31;5.60;;;3.28;;
9108;SDS011;4590;51.462;6.692;2022-10-19T04:41:01;6.32;;;3.25;;
9108;SDS011;4590;51.462;6.692;2022-10-19T04:43:31;7.55;;;3.65;;
9108;SDS011;4590;51.462;6.692;2022-10-19T04:45:56;5.10;;;3.00;;
9108;SDS011;4590;51.462;6.692;2022-10-19T04:48:25;7.65;;;3.10;;
9108;SDS011;4590;51.462;6.692;2022-10-19T04:50:52;6.10;;;3.13;;
9108;SDS011;4590;51.462;6.692;2022-10-19T04:53:18;6.75;;;3.15;;
9108;SDS011;4590;51.462;6.692;2022-10-19T04:55:44;7.80;;;3.40;;
9108;SDS011;4590;51.462;6.692;2022-10-19T04:58:09;5.83;;;2.90;;
9108;SDS011;4590;51.462;6.692;2022-10-19T05:00:36;7.53;;;3.83;;
9108;SDS011;4590;51.462;6.692;2022-10-19T05:03:02;8.60;;;3.67;;
9108;SDS011;4590;51.462;6.692;2022-10-19T05:05:27;6.13;;;3.37;;
9108;SDS011;4590;51.462;6.692;2022-10-19T05:07:53;7.93;;;4.03;;
9108;SDS011;4590;51.462;6.692;2022-10-19T05:10:18;6.77;;;3.60;;
9108;SDS011;4590;51.462;6.692;2022-10-19T05:12:43;8.27;;;4.23;;
9108;SDS011;4590;51.462;6.692;2022-10-19T05:15:08;10.47;;;4.30;;
9108;SDS011;4590;51.462;6.692;2022-10-19T05:17:34;10.48;;;4.57;;
9108;SDS011;4590;51.462;6.692;2022-10-19T05:19:59;11.07;;;5.27;;
9108;SDS011;4590;51.462;6.692;2022-10-19T05:22:25;9.70;;;5.27;;
9108;SDS011;4590;51.462;6.692;2022-10-19T05:24:50;8.17;;;5.03;;
9108;SDS011;4590;51.462;6.692;2022-10-19T05:27:16;10.93;;;5.40;;
9108;SDS011;4590;51.462;6.692;2022-10-19T05:29:41;8.63;;;5.40;;
9108;SDS011;4590;51.462;6.692;2022-10-19T05:32:06;9.23;;;5.43;;
9108;SDS011;4590;51.462;6.692;2022-10-19T05:34:31;11.10;;;4.80;;
9108;SDS011;4590;51.462;6.692;2022-10-19T05:36:57;11.30;;;5.80;;
9108;SDS011;4590;51.462;6.692;2022-10-19T05:39:22;7.17;;;5.30;;
9108;SDS011;4590;51.462;6.692;2022-10-19T05:41:48;8.38;;;4.97;;
9108;SDS011;4590;51.462;6.692;2022-10-19T05:44:14;11.43;;;5.00;;
9108;SDS011;4590;51.462;6.692;2022-10-19T05:46:41;10.45;;;5.60;;
9108;SDS011;4590;51.462;6.692;2022-10-19T05:49:06;10.70;;;5.37;;
9108;SDS011;4590;51.462;6.692;2022-10-19T05:51:32;10.40;;;5.17;;
9108;SDS011;4590;51.462;6.692;2022-10-19T05:53:57;8.97;;;5.53;;
9108;SDS011;4590;51.462;6.692;2022-10-19T05:56:24;8.43;;;5.60;;
9108;SDS011;4590;51.462;6.692;2022-10-19T05:58:51;10.30;;;5.32;;
9108;SDS011;4590;51.462;6.692;2022-10-19T06:01:17;14.07;;;5.75;;
9108;SDS011;4590;51.462;6.692;2022-10-19T06:03:43;12.50;;;5.72;;
9108;SDS011;4590;51.462;6.692;2022-10-19T06:06:09;8.67;;;5.83;;
9108;SDS011;4590;51.462;6.692;2022-10-19T06:08:35;10.07;;;6.85;;
9108;SDS011;4590;51.462;6.692;2022-10-19T06:11:11;14.00;;;6.90;;
9108;SDS011;4590;51.462;6.692;2022-10-19T06:14:00;13.05;;;7.00;;
9108;SDS011;4590;51.462;6.692;2022-10-19T06:16:28;10.55;;;5.50;;
9108;SDS011;4590;51.462;6.692;2022-10-19T06:18:55;13.25;;;6.90;;
9108;SDS011;4590;51.462;6.692;2022-10-19T06:21:22;12.35;;;6.75;;
9108;SDS011;4590;51.462;6.692;2022-10-19T06:23:50;11.23;;;5.82;;
9108;SDS011;4590;51.462;6.692;2022-10-19T06:26:17;15.55;;;6.68;;
9108;SDS011;4590;51.462;6.692;2022-10-19T06:28:42;10.55;;;6.20;;
9108;SDS011;4590;51.462;6.692;2022-10-19T06:31:08;12.13;;;6.63;;
9108;SDS011;4590;51.462;6.692;2022-10-19T06:33:34;11.23;;;6.47;;
9108;SDS011;4590;51.462;6.692;2022-10-19T06:36:07;14.15;;;6.40;;
9108;SDS011;4590;51.462;6.692;2022-10-19T06:38:34;14.52;;;7.38;;
9108;SDS011;4590;51.462;6.692;2022-10-19T06:41:00;11.18;;;6.75;;
9108;SDS011;4590;51.462;6.692;2022-10-19T06:43:25;11.97;;;6.27;;
9108;SDS011;4590;51.462;6.692;2022-10-19T06:45:51;11.43;;;6.47;;
9108;SDS011;4590;51.462;6.692;2022-10-19T06:48:17;13.97;;;7.93;;
9108;SDS011;4590;51.462;6.692;2022-10-19T06:50:42;13.70;;;7.37;;
9108;SDS011;4590;51.462;6.692;2022-10-19T06:53:07;18.40;;;8.27;;
9108;SDS011;4590;51.462;6.692;2022-10-19T06:55:32;12.90;;;6.93;;
9108;SDS011;4590;51.462;6.692;2022-10-19T06:57:58;13.00;;;7.30;;
9108;SDS011;4590;51.462;6.692;2022-10-19T07:00:25;10.85;;;6.78;;
9108;SDS011;4590;51.462;6.692;2022-10-19T07:02:54;19.25;;;7.78;;
9108;SDS011;4590;51.462;6.692;2022-10-19T07:05:20;13.07;;;7.40;;
9108;SDS011;4590;51.462;6.692;2022-10-19T07:07:46;14.67;;;8.93;;
9108;SDS011;4590;51.462;6.692;2022-10-19T07:10:11;12.77;;;7.30;;
9108;SDS011;4590;51.462;6.692;2022-10-19T07:12:37;11.50;;;7.35;;
9108;SDS011;4590;51.462;6.692;2022-10-19T07:15:02;15.57;;;8.27;;
9108;SDS011;4590;51.462;6.692;2022-10-19T07:17:28;14.70;;;7.53;;
9108;SDS011;4590;51.462;6.692;2022-10-19T07:19:53;12.10;;;6.67;;
9108;SDS011;4590;51.462;6.692;2022-10-19T07:22:18;11.77;;;7.67;;
9108;SDS011;4590;51.462;6.692;2022-10-19T07:24:44;15.13;;;7.73;;
9108;SDS011;4590;51.462;6.692;2022-10-19T07:27:09;13.50;;;7.23;;
9108;SDS011;4590;51.462;6.692;2022-10-19T07:29:35;12.17;;;6.87;;
9108;SDS011;4590;51.462;6.692;2022-10-19T07:32:00;14.55;;;7.07;;
9108;SDS011;4590;51.462;6.692;2022-10-19T07:34:26;12.17;;;7.87;;
9108;SDS011;4590;51.462;6.692;2022-10-19T07:36:51;11.40;;;7.33;;
9108;SDS011;4590;51.462;6.692;2022-10-19T07:39:17;14.65;;;7.90;;
9108;SDS011;4590;51.462;6.692;2022-10-19T07:41:42;15.60;;;6.97;;
9108;SDS011;4590;51.462;6.692;2022-10-19T07:44:09;15.82;;;8.27;;
9108;SDS011;4590;51.462;6.692;2022-10-19T07:46:34;15.03;;;7.97;;
9108;SDS011;4590;51.462;6.692;2022-10-19T07:49:02;12.95;;;8.02;;
9108;SDS011;4590;51.462;6.692;2022-10-19T07:51:29;13.63;;;6.75;;
9108;SDS011;4590;51.462;6.692;2022-10-19T07:53:54;13.53;;;7.97;;
9108;SDS011;4590;51.462;6.692;2022-10-19T07:56:23;11.93;;;8.00;;
9108;SDS011;4590;51.462;6.692;2022-10-19T07:58:51;13.73;;;7.65;;
9108;SDS011;4590;51.462;6.692;2022-10-19T08:01:18;14.10;;;6.70;;
9108;SDS011;4590;51.462;6.692;2022-10-19T08:03:45;14.35;;;7.35;;
9108;SDS011;4590;51.462;6.692;2022-10-19T08:08:38;11.97;;;7.03;;
9108;SDS011;4590;51.462;6.692;2022-10-19T08:11:09;16.45;;;7.38;;
9108;SDS011;4590;51.462;6.692;2022-10-19T08:13:37;14.40;;;8.00;;
9108;SDS011;4590;51.462;6.692;2022-10-19T08:16:03;14.07;;;7.70;;
9108;SDS011;4590;51.462;6.692;2022-10-19T08:18:29;14.82;;;7.85;;
9108;SDS011;4590;51.462;6.692;2022-10-19T08:20:54;13.20;;;7.80;;
9108;SDS011;4590;51.462;6.692;2022-10-19T08:23:20;17.40;;;7.77;;
9108;SDS011;4590;51.462;6.692;2022-10-19T08:25:47;16.23;;;7.43;;
9108;SDS011;4590;51.462;6.692;2022-10-19T08:28:12;14.45;;;7.07;;
9108;SDS011;4590;51.462;6.692;2022-10-19T08:30:37;17.73;;;7.00;;
9108;SDS011;4590;51.462;6.692;2022-10-19T08:33:03;13.47;;;6.90;;
9108;SDS011;4590;51.462;6.692;2022-10-19T08:35:31;11.73;;;7.15;;
9108;SDS011;4590;51.462;6.692;2022-10-19T08:37:56;11.30;;;6.03;;
9108;SDS011;4590;51.462;6.692;2022-10-19T08:40:23;9.30;;;5.30;;
9108;SDS011;4590;51.462;6.692;2022-10-19T08:45:26;13.57;;;6.15;;
9108;SDS011;4590;51.462;6.692;2022-10-19T08:50:53;8.98;;;5.57;;
9108;SDS011;4590;51.462;6.692;2022-10-19T08:53:22;12.45;;;5.72;;
9108;SDS011;4590;51.462;6.692;2022-10-19T08:56:12;10.70;;;5.25;;
9108;SDS011;4590;51.462;6.692;2022-10-19T08:58:54;11.75;;;5.38;;
9108;SDS011;4590;51.462;6.692;2022-10-19T09:04:28;14.38;;;5.43;;
9108;SDS011;4590;51.462;6.692;2022-10-19T09:09:41;9.88;;;4.50;;
9108;SDS011;4590;51.462;6.692;2022-10-19T09:12:13;8.25;;;4.18;;
9108;SDS011;4590;51.462;6.692;2022-10-19T09:15:03;9.25;;;4.50;;
9108;SDS011;4590;51.462;6.692;2022-10-19T09:17:31;11.30;;;4.68;;
9108;SDS011;4590;51.462;6.692;2022-10-19T09:22:30;10.52;;;3.95;;
9108;SDS011;4590;51.462;6.692;2022-10-19T09:27:46;8.32;;;3.90;;
9108;SDS011;4590;51.462;6.692;2022-10-19T09:30:22;9.70;;;3.60;;
9108;SDS011;4590;51.462;6.692;2022-10-19T09:32:49;6.80;;;3.40;;
9108;SDS011;4590;51.462;6.692;2022-10-19T09:35:23;7.40;;;3.03;;
9108;SDS011;4590;51.462;6.692;2022-10-19T09:37:53;8.30;;;3.38;;
9108;SDS011;4590;51.462;6.692;2022-10-19T09:40:24;8.68;;;4.10;;
9108;SDS011;4590;51.462;6.692;2022-10-19T09:42:51;9.30;;;3.95;;
9108;SDS011;4590;51.462;6.692;2022-10-19T09:50:58;8.63;;;3.08;;
9108;SDS011;4590;51.462;6.692;2022-10-19T09:53:34;7.97;;;3.42;;
9108;SDS011;4590;51.462;6.692;2022-10-19T09:56:06;6.10;;;3.35;;
9108;SDS011;4590;51.462;6.692;2022-10-19T09:58:33;8.15;;;3.40;;
9108;SDS011;4590;51.462;6.692;2022-10-19T10:00:59;8.43;;;2.97;;
9108;SDS011;4590;51.462;6.692;2022-10-19T10:03:27;8.07;;;3.90;;
9108;SDS011;4590;51.462;6.692;2022-10-19T10:05:54;9.45;;;3.53;;
9108;SDS011;4590;51.462;6.692;2022-10-19T10:08:23;10.05;;;3.33;;
9108;SDS011;4590;51.462;6.692;2022-10-19T10:10:52;7.72;;;3.20;;
9108;SDS011;4590;51.462;6.692;2022-10-19T10:13:24;5.80;;;3.03;;
9108;SDS011;4590;51.462;6.692;2022-10-19T10:15:55;10.93;;;3.10;;
9108;SDS011;4590;51.462;6.692;2022-10-19T10:18:23;9.63;;;2.88;;
9108;SDS011;4590;51.462;6.692;2022-10-19T10:20:57;5.18;;;2.42;;
9108;SDS011;4590;51.462;6.692;2022-10-19T10:23:24;6.30;;;2.88;;
9108;SDS011;4590;51.462;6.692;2022-10-19T10:25:55;6.35;;;2.90;;
9108;SDS011;4590;51.462;6.692;2022-10-19T10:28:24;6.60;;;2.70;;
9108;SDS011;4590;51.462;6.692;2022-10-19T10:31:06;5.03;;;2.35;;
9108;SDS011;4590;51.462;6.692;2022-10-19T10:33:34;5.00;;;2.30;;
9108;SDS011;4590;51.462;6.692;2022-10-19T10:36:02;3.00;;;1.90;;
9108;SDS011;4590;51.462;6.692;2022-10-19T10:38:34;7.75;;;2.40;;
9108;SDS011;4590;51.462;6.692;2022-10-19T10:41:04;7.05;;;1.70;;
9108;SDS011;4590;51.462;6.692;2022-10-19T10:43:35;5.57;;;1.80;;
9108;SDS011;4590;51.462;6.692;2022-10-19T10:46:14;7.38;;;2.22;;
9108;SDS011;4590;51.462;6.692;2022-10-19T10:48:43;10.13;;;2.22;;
9108;SDS011;4590;51.462;6.692;2022-10-19T10:51:25;8.52;;;1.80;;
9108;SDS011;4590;51.462;6.692;2022-10-19T10:54:07;6.15;;;1.35;;
9108;SDS011;4590;51.462;6.692;2022-10-19T10:56:39;6.10;;;1.60;;
9108;SDS011;4590;51.462;6.692;2022-10-19T10:59:14;7.50;;;1.70;;
9108;SDS011;4590;51.462;6.692;2022-10-19T11:01:55;3.78;;;1.02;;
9108;SDS011;4590;51.462;6.692;2022-10-19T11:04:41;4.10;;;1.20;;
9108;SDS011;4590;51.462;6.692;2022-10-19T11:07:16;5.47;;;1.80;;
9108;SDS011;4590;51.462;6.692;2022-10-19T11:09:49;6.43;;;1.80;;
9108;SDS011;4590;51.462;6.692;2022-10-19T11:12:15;3.70;;;1.10;;
9108;SDS011;4590;51.462;6.692;2022-10-19T11:14:48;3.88;;;1.45;;
9108;SDS011;4590;51.462;6.692;2022-10-19T11:17:20;3.20;;;0.90;;
9108;SDS011;4590;51.462;6.692;2022-10-19T11:19:48;3.03;;;1.00;;
9108;SDS011;4590;51.462;6.692;2022-10-19T11:22:34;4.55;;;1.10;;
9108;SDS011;4590;51.462;6.692;2022-10-19T11:30:22;4.07;;;1.27;;
9108;SDS011;4590;51.462;6.692;2022-10-19T11:35:52;5.90;;;1.17;;
9108;SDS011;4590;51.462;6.692;2022-10-19T11:41:26;2.67;;;0.82;;
9108;SDS011;4590;51.462;6.692;2022-10-19T11:49:49;5.00;;;1.38;;
9108;SDS011;4590;51.462;6.692;2022-10-19T11:55:51;5.97;;;1.70;;
9108;SDS011;4590;51.462;6.692;2022-10-19T12:01:44;5.95;;;1.42;;
9108;SDS011;4590;51.462;6.692;2022-10-19T12:10:21;4.45;;;1.40;;
9108;SDS011;4590;51.462;6.692;2022-10-19T12:12:57;3.42;;;1.25;;
9108;SDS011;4590;51.462;6.692;2022-10-19T12:18:15;3.95;;;1.50;;
9108;SDS011;4590;51.462;6.692;2022-10-19T12:20:48;2.72;;;1.25;;
9108;SDS011;4590;51.462;6.692;2022-10-19T12:23:33;4.20;;;1.65;;
9108;SDS011;4590;51.462;6.692;2022-10-19T12:26:02;2.28;;;1.20;;
9108;SDS011;4590;51.462;6.692;2022-10-19T12:28:35;5.38;;;1.40;;
9108;SDS011;4590;51.462;6.692;2022-10-19T12:31:03;4.78;;;1.10;;
9108;SDS011;4590;51.462;6.692;2022-10-19T12:33:32;3.38;;;1.05;;
9108;SDS011;4590;51.462;6.692;2022-10-19T12:36:22;4.55;;;1.00;;
9108;SDS011;4590;51.462;6.692;2022-10-19T12:41:52;3.67;;;1.10;;
9108;SDS011;4590;51.462;6.692;2022-10-19T12:47:26;3.80;;;1.33;;
9108;SDS011;4590;51.462;6.692;2022-10-19T12:49:55;4.57;;;1.20;;
9108;SDS011;4590;51.462;6.692;2022-10-19T12:52:32;7.20;;;1.45;;
9108;SDS011;4590;51.462;6.692;2022-10-19T12:57:45;5.95;;;1.70;;
9108;SDS011;4590;51.462;6.692;2022-10-19T13:02:55;5.03;;;1.20;;
9108;SDS011;4590;51.462;6.692;2022-10-19T13:05:40;4.75;;;1.55;;
9108;SDS011;4590;51.462;6.692;2022-10-19T13:08:06;3.83;;;1.25;;
9108;SDS011;4590;51.462;6.692;2022-10-19T13:12:58;3.70;;;1.40;;
9108;SDS011;4590;51.462;6.692;2022-10-19T13:17:59;4.13;;;1.40;;
9108;SDS011;4590;51.462;6.692;2022-10-19T13:25:28;3.03;;;0.90;;
9108;SDS011;4590;51.462;6.692;2022-10-19T13:38:24;3.85;;;1.35;;
9108;SDS011;4590;51.462;6.692;2022-10-19T13:45:58;3.45;;;1.05;;
9108;SDS011;4590;51.462;6.692;2022-10-19T13:54:26;4.43;;;1.13;;
9108;SDS011;4590;51.462;6.692;2022-10-19T13:57:21;5.25;;;1.00;;
9108;SDS011;4590;51.462;6.692;2022-10-19T14:08:15;4.22;;;1.05;;
9108;SDS011;4590;51.462;6.692;2022-10-19T14:11:18;2.85;;;1.15;;
9108;SDS011;4590;51.462;6.692;2022-10-19T14:14:05;4.28;;;1.20;;
9108;SDS011;4590;51.462;6.692;2022-10-19T14:19:29;3.72;;;1.20;;
9108;SDS011;4590;51.462;6.692;2022-10-19T14:21:57;3.20;;;1.17;;
9108;SDS011;4590;51.462;6.692;2022-10-19T14:26:55;4.18;;;1.00;;
9108;SDS011;4590;51.462;6.692;2022-10-19T14:29:21;3.47;;;0.98;;
9108;SDS011;4590;51.462;6.692;2022-10-19T14:31:46;2.07;;;0.83;;
9108;SDS011;4590;51.462;6.692;2022-10-19T14:34:12;4.32;;;1.30;;
9108;SDS011;4590;51.462;6.692;2022-10-19T14:36:41;2.75;;;1.10;;
9108;SDS011;4590;51.462;6.692;2022-10-19T14:39:20;7.07;;;1.75;;
9108;SDS011;4590;51.462;6.692;2022-10-19T14:41:51;3.08;;;0.90;;
9108;SDS011;4590;51.462;6.692;2022-10-19T14:47:20;4.30;;;1.40;;
9108;SDS011;4590;51.462;6.692;2022-10-19T14:49:47;2.60;;;0.98;;
9108;SDS011;4590;51.462;6.692;2022-10-19T14:52:15;2.72;;;1.20;;
9108;SDS011;4590;51.462;6.692;2022-10-19T14:54:52;4.70;;;1.10;;
9108;SDS011;4590;51.462;6.692;2022-10-19T14:57:27;2.90;;;1.15;;
9108;SDS011;4590;51.462;6.692;2022-10-19T14:59:57;4.35;;;1.25;;
9108;SDS011;4590;51.462;6.692;2022-10-19T15:02:44;5.22;;;1.15;;
9108;SDS011;4590;51.462;6.692;2022-10-19T15:05:19;4.38;;;1.25;;
9108;SDS011;4590;51.462;6.692;2022-10-19T15:07:47;3.88;;;1.10;;
9108;SDS011;4590;51.462;6.692;2022-10-19T15:10:17;3.45;;;1.45;;
9108;SDS011;4590;51.462;6.692;2022-10-19T15:12:45;3.83;;;1.33;;
9108;SDS011;4590;51.462;6.692;2022-10-19T15:15:24;4.22;;;1.30;;
9108;SDS011;4590;51.462;6.692;2022-10-19T15:18:01;4.65;;;1.50;;
9108;SDS011;4590;51.462;6.692;2022-10-19T15:20:29;5.18;;;1.30;;
9108;SDS011;4590;51.462;6.692;2022-10-19T15:22:58;3.08;;;1.20;;
9108;SDS011;4590;51.462;6.692;2022-10-19T15:31:23;5.22;;;1.40;;
9108;SDS011;4590;51.462;6.692;2022-10-19T15:33:53;4.57;;;1.45;;
9108;SDS011;4590;51.462;6.692;2022-10-19T15:36:21;4.07;;;1.40;;
9108;SDS011;4590;51.462;6.692;2022-10-19T15:39:11;4.93;;;1.65;;
9108;SDS011;4590;51.462;6.692;2022-10-19T15:41:43;2.88;;;1.40;;
9108;SDS011;4590;51.462;6.692;2022-10-19T15:52:13;4.32;;;1.42;;
9108;SDS011;4590;51.462;6.692;2022-10-19T15:54:38;5.88;;;1.45;;
9108;SDS011;4590;51.462;6.692;2022-10-19T15:57:15;5.87;;;1.70;;
9108;SDS011;4590;51.462;6.692;2022-10-19T15:59:45;4.68;;;1.73;;
9108;SDS011;4590;51.462;6.692;2022-10-19T16:02:12;4.43;;;1.52;;
9108;SDS011;4590;51.462;6.692;2022-10-19T16:04:38;3.58;;;1.80;;
9108;SDS011;4590;51.462;6.692;2022-10-19T16:07:03;4.07;;;1.57;;
9108;SDS011;4590;51.462;6.692;2022-10-19T16:09:29;5.07;;;1.30;;
9108;SDS011;4590;51.462;6.692;2022-10-19T16:11:54;3.20;;;1.83;;
9108;SDS011;4590;51.462;6.692;2022-10-19T16:14:21;5.03;;;1.48;;
9108;SDS011;4590;51.462;6.692;2022-10-19T16:16:47;5.55;;;1.50;;
9108;SDS011;4590;51.462;6.692;2022-10-19T16:19:14;5.03;;;1.30;;
9108;SDS011;4590;51.462;6.692;2022-10-19T16:21:39;3.00;;;1.40;;
9108;SDS011;4590;51.462;6.692;2022-10-19T16:24:04;4.73;;;1.73;;
9108;SDS011;4590;51.462;6.692;2022-10-19T16:26:30;5.30;;;1.70;;
9108;SDS011;4590;51.462;6.692;2022-10-19T16:28:56;5.45;;;1.33;;
9108;SDS011;4590;51.462;6.692;2022-10-19T16:31:22;4.57;;;1.42;;
9108;SDS011;4590;51.462;6.692;2022-10-19T16:33:48;4.22;;;1.30;;
9108;SDS011;4590;51.462;6.692;2022-10-19T16:36:13;4.67;;;1.00;;
9108;SDS011;4590;51.462;6.692;2022-10-19T16:38:38;3.57;;;2.03;;
9108;SDS011;4590;51.462;6.692;2022-10-19T16:41:05;5.07;;;1.90;;
9108;SDS011;4590;51.462;6.692;2022-10-19T16:43:32;8.05;;;2.55;;
9108;SDS011;4590;51.462;6.692;2022-10-19T16:45:57;3.67;;;1.23;;
9108;SDS011;4590;51.462;6.692;2022-10-19T16:48:23;5.60;;;1.35;;
9108;SDS011;4590;51.462;6.692;2022-10-19T16:53:29;4.00;;;1.67;;
9108;SDS011;4590;51.462;6.692;2022-10-19T16:55:54;3.73;;;1.27;;
9108;SDS011;4590;51.462;6.692;2022-10-19T16:58:28;4.07;;;1.50;;
9108;SDS011;4590;51.462;6.692;2022-10-19T17:00:53;6.30;;;1.73;;
9108;SDS011;4590;51.462;6.692;2022-10-19T17:03:20;4.10;;;1.88;;
9108;SDS011;4590;51.462;6.692;2022-10-19T17:05:46;3.20;;;1.35;;
9108;SDS011;4590;51.462;6.692;2022-10-19T17:08:11;3.23;;;1.50;;
9108;SDS011;4590;51.462;6.692;2022-10-19T17:10:36;3.80;;;1.33;;
9108;SDS011;4590;51.462;6.692;2022-10-19T17:13:01;3.37;;;1.53;;
9108;SDS011;4590;51.462;6.692;2022-10-19T17:15:27;3.77;;;1.40;;
9108;SDS011;4590;51.462;6.692;2022-10-19T17:17:52;5.93;;;1.27;;
9108;SDS011;4590;51.462;6.692;2022-10-19T17:20:19;3.60;;;1.15;;
9108;SDS011;4590;51.462;6.692;2022-10-19T17:22:44;2.63;;;1.70;;
9108;SDS011;4590;51.462;6.692;2022-10-19T17:25:10;3.23;;;1.20;;
9108;SDS011;4590;51.462;6.692;2022-10-19T17:27:35;4.03;;;1.40;;
9108;SDS011;4590;51.462;6.692;2022-10-19T17:30:00;3.57;;;1.63;;
9108;SDS011;4590;51.462;6.692;2022-10-19T17:32:25;3.90;;;1.57;;
9108;SDS011;4590;51.462;6.692;2022-10-19T17:34:52;3.00;;;1.57;;
9108;SDS011;4590;51.462;6.692;2022-10-19T17:37:18;4.00;;;1.77;;
9108;SDS011;4590;51.462;6.692;2022-10-19T17:39:43;6.97;;;1.90;;
9108;SDS011;4590;51.462;6.692;2022-10-19T17:42:08;3.83;;;1.50;;
9108;SDS011;4590;51.462;6.692;2022-10-19T17:44:33;2.90;;;1.70;;
9108;SDS011;4590;51.462;6.692;2022-10-19T17:46:59;3.93;;;1.70;;
9108;SDS011;4590;51.462;6.692;2022-10-19T17:49:24;3.03;;;1.60;;
9108;SDS011;4590;51.462;6.692;2022-10-19T17:51:50;3.70;;;1.80;;
9108;SDS011;4590;51.462;6.692;2022-10-19T17:56:41;3.23;;;1.47;;
9108;SDS011;4590;51.462;6.692;2022-10-19T17:59:09;4.35;;;1.77;;